Airfield :
LOGIN :

Register | Disclaimer

   EN    FR    IT 

 










Legend :    VFR   Marginal VFR   IFR   Intensive IFR   Very Intensive IFR
Visi :
Ceiling :
>= 8 km
>= 3000ft
5 to 8 km
1000 to 3000 ft
1500m to 5 km
500 to 1000 ft
800 to 1500m
200 to 500 ft
< 800m
< 200 ft
Symbols :   Thunderstorms  Fog  Heavy snow  Heavy precipitations  Wind > 20 kt
SIGMETs :     Misc.  Thunderstorms  Icing  Turbulence  Mountain Waves  Volcanic Ashes







- Airport Elevation : 459 ft
- IATA code : CER
- Download approach charts


LFRC - Cherbourg / Maupertus

CURRENT METAR :
  • 162200Z AUTO 33007KT 280V010 9999 FEW017 BKN022 BKN030 07/04 Q1023

EXPIRED METARs :
  • 162130Z AUTO 32010KT 300V360 9999 BKN022 BKN031 BKN038 08/03 Q1023
  • 162100Z AUTO 32009KT 280V350 9999 BKN021 OVC032 08/04 Q1023
  • 162030Z AUTO 31010KT 280V340 9999 BKN019 BKN024 BKN031 08/04 Q1022
  • 162000Z AUTO 32011KT 290V350 9999 BKN021 OVC026 08/04 Q1022
  • 161930Z AUTO 30013KT 9999 BKN015 OVC031 07/05 Q1022

TAF TAF LFRC
Valid from the 16 at 15:00 until the 17 at 00:00 UTC


161400Z 1615/1624 31012KT 9999 BKN030
TEMPO 1618/1622 31015G25KT 4000 SHRA BKN013
No reported NOTAMs for that airfield.



MET'MAP, your aeronautical weather chart ! - Copyright ORBIFLY December 2007 - Disclaimer

ORBIFLY MET'MAP TEAM :

Programming & Development : Alexandra Zaïnal
Concept & Development : Baudouin d'Aumeries
Co-Development & Prog : Marc-Olivier Méhu
Technical & hardware support : Manuel Goepfert

Contact : metmap@orbifly.com




SOURCES & CREDITS :

   NOAA